Burns Pinion Ridge Reserve, California Weather observations

Data are for 10 minute period ending at time listed.
 Day   Time   Solar   Ave.   Ave.  Ave.  Vector  Max.   Baro.   Total    
  of    of     Rad.   Air    Rel.  Wind   Wind   Wind  Press.  Precip.   
Year   Day            Temp.  Hum.  Speed  Dir.   Gust                    
2016   (PST)  Kw/m2    F      %     mph   deg.    mph    mb.     in.     
-------------------------------------------------------------------------
 151   20:10   0.00   72.3    25    5.7   191    10.0   873.3    0.00 
 151   20:20   0.00   72.1    25    6.6   207    11.0   873.3    0.00 
 151   20:30   0.00   72.3    24    6.5   208     8.8   873.3    0.00 
 151   20:40   0.00   72.3    24    6.6   198    10.2   873.4    0.00 
 151   20:50   0.00   72.2    24    6.2   213    10.8   873.4    0.00 
 151   21:00   0.00   72.0    25    6.7   205    10.6   873.5    0.00 
 151   21:10   0.00   72.0    25    7.6   208    10.7   873.5    0.00 
 151   21:20   0.00   71.5    26    5.7   209     9.8   873.6    0.00 
 151   21:30   0.00   70.7    27    5.2   223     8.5   873.7    0.00 
 151   21:40   0.00   70.4    28    4.6   216     6.5   873.6    0.00 
 151   21:50   0.00   70.1    28    4.8   224     6.3   873.4    0.00 
 151   22:00   0.00   69.5    28    5.0   204     6.9   873.4    0.00 
 151   22:10   0.00   69.4    28    5.1   207     8.9   873.2    0.00 
 151   22:20   0.00   69.5    28    6.5   214     8.8   873.0    0.00 
 151   22:30   0.00   69.3    28    7.9   191    11.0   872.9    0.00 
 151   22:40   0.00   69.3    29    6.9   202     9.6   872.9    0.00 
 151   22:50   0.00   69.5    29    6.5   206     9.0   872.9    0.00 
 151   23:00   0.00   68.8    30    6.2   196     8.9   872.8    0.00 
 151   23:10   0.00   68.7    31    5.9   194     7.9   872.7    0.00 
 151   23:20   0.00   68.3    31    6.2   196     8.7   872.6    0.00 
 151   23:30   0.00   68.6    29    5.6   195     7.8   872.5    0.00 
 151   23:40   0.00   69.0    29    5.4   207     7.5   872.4    0.00 
 151   23:50   0.00   68.3    29    4.1   202     6.4   872.3    0.00 
 152    0:00   0.00   68.0    29    4.8   194     6.8   872.2    0.00 
 152    0:10   0.00   67.7    28    3.8   202     5.0   872.2    0.00 
 152    0:20   0.00   66.2    29    3.3   169     8.0   872.1    0.00 
 152    0:30   0.00   66.1    29    1.8   231     3.6   872.1    0.00 
 152    0:40   0.00   64.9    30    1.1   180     6.1   872.0    0.00 
 152    0:50   0.00   63.8    31    1.6   235     3.9   871.9    0.00 
 152    1:00   0.00   62.7    32    0.7   204     2.7   871.9    0.00 
 152    1:10   0.00   61.7    32    2.2   266     6.6   871.8    0.00 
 152    1:20   0.00   64.8    27    3.5   284     7.0   871.8    0.00 
 152    1:30   0.00   66.3    25    2.8   276     5.0   871.8    0.00 
 152    1:40   0.00   66.1    25    3.0   287     6.6   871.8    0.00 
 152    1:50   0.00   65.5    26    3.6   316     6.5   871.7    0.00 
 152    2:00   0.00   66.2    25    5.0   316     7.1   871.7    0.00 
 152    2:10   0.00   66.0    25    4.8   322     7.6   871.8    0.00 
 152    2:20   0.00   66.5    24    6.3   322     8.6   871.8    0.00 
 152    2:30   0.00   66.6    24    6.5   327     8.6   871.8    0.00 
 152    2:40   0.00   67.5    23    5.2   306     9.3   871.8    0.00 
 152    2:50   0.00   68.5    22    4.6   288     8.3   871.8    0.00 
 152    3:00   0.00   69.8    22    7.1   310    10.5   871.8    0.00 
 152    3:10   0.00   69.6    22    6.8   316    10.8   871.9    0.00 
 152    3:20   0.00   69.9    22    5.3   338     8.8   871.9    0.00 
 152    3:30   0.00   69.2    22    5.9   338     9.3   872.0    0.00 
 152    3:40   0.00   69.7    22    6.2   333     9.1   872.0    0.00 
 152    3:50   0.00   69.7    22    5.7   339     9.9   872.0    0.00 
 152    4:00   0.00   69.6    22    6.6   339    10.5   871.9    0.00 
 152    4:10   0.00   69.6    22    5.6   327     9.1   871.9    0.00 
 152    4:20   0.00   69.3    23    5.5   323     8.8   871.9    0.00 
 152    4:30   0.00   69.9    22    7.4   323    12.3   871.9    0.00 
 152    4:40   0.00   70.4    22    7.4   315    11.7   871.9    0.00 
 152    4:50   0.01   70.6    22    7.1   308    10.6   872.0    0.00 
 152    5:00   0.01   70.4    22    7.1   313    10.7   872.1    0.00 
 152    5:10   0.03   69.9    22    5.7   321     8.0   872.2    0.00 
 152    5:20   0.06   70.3    22    7.1   324    11.6   872.3    0.00 
 152    5:30   0.10   72.3    21    7.3   327    11.5   872.4    0.00 
 152    5:40   0.13   73.3    20    6.5   318    10.2   872.5    0.00 
 152    5:50   0.16   74.2    20    8.5   317    12.1   872.7    0.00 
 152    6:00   0.19   75.2    20    7.9   333    11.9   872.9    0.00 
 152    6:10   0.22   76.3    19    6.2   328    11.2   873.0    0.00 
 152    6:20   0.26   77.5    19    8.1   338    13.4   873.2    0.00 
 152    6:30   0.29   77.9    19    9.5   326    14.4   873.2    0.00 
 152    6:40   0.33   78.4    19   10.5   322    16.3   873.3    0.00 
 152    6:50   0.37   79.0    18   10.7   315    15.3   873.4    0.00 
 152    7:00   0.40   80.0    17    8.9   326    13.4   873.5    0.00 
 152    7:10   0.44   80.7    16    9.1   332    14.2   873.7    0.00 
 152    7:20   0.47   81.0    16    8.6   332    13.5   873.8    0.00 
 152    7:30   0.51   81.8    15    8.6   333    12.1   873.9    0.00 
 152    7:40   0.54   82.6    15    6.7   354    13.3   873.9    0.00 
 152    7:50   0.58   83.1    15    6.2    27    14.0   873.9    0.00 
 152    8:00   0.61   82.7    15    6.9     2    13.0   873.9    0.00 
 152    8:10   0.65   82.5    15    9.2   357    14.8   874.0    0.00 
 152    8:20   0.68   82.8    15    8.8   343    14.0   874.1    0.00 
 152    8:30   0.71   82.9    15    8.3     0    13.6   874.1    0.00 
 152    8:40   0.74   83.5    14    7.8   359    14.2   874.1    0.00 
 152    8:50   0.77   83.3    14    6.7    38    17.0   874.0    0.00 
 152    9:00   0.80   83.7    14    6.8    51    16.0   874.1    0.00 
 152    9:10   0.82   83.4    14    9.2     5    20.5   874.1    0.00 
 152    9:20   0.85   83.9    14    8.5   356    16.6   874.1    0.00 
 152    9:30   0.87   84.3    13    6.1    26    17.5   874.1    0.00 
 152    9:40   0.89   84.0    13    9.1    23    17.0   874.1    0.00 
 152    9:50   0.91   84.9    13    9.1   353    16.9   874.1    0.00 
 152   10:00   0.93   85.1    13    7.0    16    13.6   874.2    0.00 
 152   10:10   0.94   85.5    12    7.2    43    16.1   874.2    0.00 
 152   10:20   0.96   84.9    13    8.3    42    17.8   874.2    0.00 
 152   10:30   0.97   85.5    12    7.0   359    19.0   874.2    0.00 
 152   10:40   0.98   85.3    12    6.4    58    17.1   874.1    0.00 
 152   10:50   0.99   86.1    12    8.3     4    15.8   874.1    0.00 
 152   11:00   1.00   85.9    12    7.9    40    18.4   874.0    0.00 
 152   11:10   1.01   85.4    12    4.7    37    14.3   874.0    0.00 
 152   11:20   1.02   86.3    12    8.2   360    15.4   873.9    0.00 
 152   11:30   1.00   86.8    12    6.6    23    14.9   873.9    0.00 
 152   11:40   1.02   86.7    12    6.7    30    13.9   873.8    0.00 
 152   11:50   0.95   86.9    12    4.9   360    11.2   873.7    0.00 
 152   12:00   1.00   87.4    12    8.6    45    19.6   873.6    0.00 
 152   12:10   1.01   88.2    12    8.2    10    17.6   873.5    0.00 
 152   12:20   1.01   87.7    12    7.6    39    22.9   873.4    0.00 
 152   12:30   1.01   89.3    11    8.2   351    15.1   873.3    0.00 
 152   12:40   1.00   88.3    12    8.2   335    13.2   873.2    0.00 
 152   12:50   0.99   88.0    12    6.1   354    13.4   873.1    0.00 
 152   13:00   1.00   88.2    12    7.8    12    16.2   873.0    0.00 
 152   13:10   0.99   89.1    11    9.8     8    17.1   872.8    0.00 
 152   13:20   0.97   88.5    11    5.6    67    12.9   872.8    0.00 
 152   13:30   0.95   88.6    11    9.5    53    25.4   872.7    0.00 
 152   13:40   0.94   88.2    11    7.4    46    19.4   872.5    0.00 
 152   13:50   0.85   88.9    11    8.1    35    18.0   872.4    0.00 
 152   14:00   0.62   86.8    11    8.2    44    16.7   872.3    0.00 
 152   14:10   0.92   89.2    11    6.1    43    16.8   872.3    0.00 
 152   14:20   0.92   89.7    10    7.2    22    13.4   872.2    0.00 
 152   14:30   0.86   90.3    10    7.7     4    13.0   872.1    0.00 
 152   14:40   0.74   89.6    10    7.5    35    17.2   872.0    0.00 
 152   14:50   0.36   87.9    10    7.0    12    13.5   872.0    0.00 
 152   15:00   0.77   89.3    10    7.9   334    15.8   871.9    0.00 
 152   15:10   0.57   89.6    10    6.9   329    14.0   871.8    0.00 
 152   15:20   0.35   87.5    11    4.1    25     8.2   871.7    0.00 
 152   15:30   0.70   90.0    10    5.5   158     7.6   871.7    0.00 
 152   15:40   0.49   89.3    13    4.3   250     7.6   871.7    0.00 
 152   15:50   0.63   88.8    14    5.4   264    11.9   871.6    0.00 
 152   16:00   0.60   88.8    16    5.5   197    12.5   871.5    0.00 
 152   16:10   0.55   88.1    16    5.0   185    14.9   871.6    0.00 
 152   16:20   0.43   87.9    16    4.1   164    11.9   871.5    0.00 
 152   16:30   0.45   87.3    16    6.0   195    16.4   871.4    0.00 
 152   16:40   0.42   86.3    17    8.8   207    14.8   871.4    0.00 
 152   16:50   0.37   85.5    16    9.1   217    14.2   871.5    0.00 
 152   17:00   0.33   85.5    16    7.1   211    13.0   871.5    0.00 
 152   17:10   0.30   85.8    16    8.2   203    18.9   871.5    0.00 
 152   17:20   0.26   86.1    15    6.3   214    13.0   871.5    0.00 
 152   17:30   0.22   85.4    15    7.6   218    15.2   871.6    0.00 
 152   17:40   0.19   84.9    15    6.5   192    14.3   871.7    0.00 
 152   17:50   0.15   85.6    15    3.6   181    12.0   871.7    0.00 
 152   18:00   0.12   85.5    15    5.8   175    12.7   871.8    0.00 
 152   18:10   0.10   84.6    15    5.0   172    12.2   871.9    0.00 
 152   18:20   0.07   83.3    16    6.2   206    10.4   872.0    0.00 
 152   18:30   0.04   81.9    18    6.1   221    12.1   872.1    0.00 
 152   18:40   0.02   81.1    19    5.9   222    10.9   872.2    0.00 
 152   18:50   0.01   80.2    19    6.3   211    11.7   872.3    0.00 
 152   19:00   0.00   79.6    20    4.5   212     9.1   872.4    0.00 
 152   19:10   0.00   78.8    21    4.0   187     7.4   872.5    0.00 
 152   19:20   0.00   77.6    24    4.4   180     7.4   872.5    0.00 
 152   19:30   0.00   76.9    25    4.3   201     6.5   872.6    0.00 
 152   19:40   0.00   77.3    24    6.0   200     9.2   872.5    0.00 
 152   19:50   0.00   77.0    25    4.5   193     7.7   872.5    0.00 
 152   20:00   0.00   76.8    25    5.3   206     8.1   872.6    0.00 

Return to Burns Pinion Ridge Reserve graphs page.


Western Regional Climate Center,wrcc@dri.edu